Time;durP1;ratioP1;P1;durP2;ratioP2;P2;SDS_P1;SDS_P2;PMS_P1;PMS_P2;Temp;Humidity;BMP_temperature;BMP_pressure;BME280_temperature;BME280_humidity;BME280_pressure;Samples;Min_cycle;Max_cycle;Signal;HPM_P1;HPM_P2
2022/05/11 00:01:50;;;;;;;12.93;11.83;;;17.00;99.90;;;;;;5052103;28;20440;-89
2022/05/11 00:04:16;;;;;;;12.50;11.50;;;17.00;99.90;;;;;;5055651;28;20452;-89
2022/05/11 00:06:42;;;;;;;11.97;10.90;;;16.90;99.90;;;;;;5052005;28;20190;-89
2022/05/11 00:09:10;;;;;;;12.07;11.17;;;16.90;99.90;;;;;;5048800;28;20921;-89
2022/05/11 00:11:36;;;;;;;11.50;10.50;;;16.80;99.90;;;;;;5041292;28;20445;-89
2022/05/11 00:14:05;;;;;;;10.70;9.83;;;16.80;99.90;;;;;;5048069;28;20491;-90
2022/05/11 00:16:35;;;;;;;11.20;10.30;;;16.80;99.90;;;;;;5064882;28;20521;-90
2022/05/11 00:19:03;;;;;;;11.47;10.43;;;16.70;99.90;;;;;;5046387;28;20440;-90
2022/05/11 00:22:01;;;;;;;10.90;9.90;;;16.70;99.90;;;;;;5044840;28;20527;-90
2022/05/11 00:24:56;;;;;;;10.00;8.57;;;16.70;99.90;;;;;;5043947;28;20505;-90
2022/05/11 00:27:21;;;;;;;11.27;10.27;;;16.70;99.90;;;;;;5030058;28;20447;-89
2022/05/11 00:29:47;;;;;;;11.03;10.17;;;16.60;99.90;;;;;;5047223;28;20992;-89
2022/05/11 00:32:15;;;;;;;11.03;10.07;;;16.50;99.90;;;;;;5044477;28;20809;-89
2022/05/11 00:34:40;;;;;;;12.10;11.10;;;16.50;99.90;;;;;;5050376;28;20173;-89
2022/05/11 00:37:06;;;;;;;11.60;10.60;;;16.30;99.90;;;;;;5045424;28;20919;-89
2022/05/11 00:39:34;;;;;;;11.40;10.50;;;16.50;99.90;;;;;;5046549;28;20183;-88
2022/05/11 00:42:04;;;;;;;11.60;10.63;;;17.00;99.90;;;;;;5048747;28;20186;-89
2022/05/11 00:44:38;;;;;;;12.00;11.03;;;16.50;99.90;;;;;;5061862;28;20446;-89
2022/05/11 00:47:32;;;;;;;12.63;11.53;;;16.40;99.90;;;;;;5054380;28;20455;-89
2022/05/11 00:50:04;;;;;;;12.17;11.17;;;16.40;99.90;;;;;;5026350;28;20523;-88
2022/05/11 00:52:35;;;;;;;11.43;10.43;;;16.30;99.90;;;;;;5058297;28;20533;-88
2022/05/11 00:55:08;;;;;;;11.33;10.23;;;16.30;99.90;;;;;;5049003;28;20502;-89
2022/05/11 00:57:56;;;;;;;11.50;10.60;;;16.30;99.90;;;;;;5064691;28;20471;-89
2022/05/11 01:00:25;;;;;;;11.50;10.50;;;16.20;99.90;;;;;;5049402;28;20443;-89
2022/05/11 01:03:00;;;;;;;11.17;10.17;;;16.20;99.90;;;;;;5047254;28;21148;-89
2022/05/11 01:05:25;;;;;;;10.70;9.80;;;16.20;99.90;;;;;;5044810;28;20458;-89
2022/05/11 01:07:57;;;;;;;12.83;11.60;;;16.20;99.90;;;;;;5046466;28;21017;-88
2022/05/11 01:10:27;;;;;;;11.80;10.70;;;16.20;99.90;;;;;;5058827;28;20728;-89
2022/05/11 01:12:55;;;;;;;11.77;10.77;;;16.20;99.90;;;;;;5019291;28;20738;-89
2022/05/11 01:15:22;;;;;;;11.33;10.33;;;16.10;99.90;;;;;;5045445;28;20444;-88
2022/05/11 01:17:49;;;;;;;12.00;10.80;;;16.10;99.90;;;;;;5059876;28;20455;-89
2022/05/11 01:20:20;;;;;;;12.23;11.13;;;16.00;99.90;;;;;;5045536;28;20559;-90
2022/05/11 01:23:39;;;;;;;11.90;10.80;;;16.10;99.90;;;;;;5060512;28;20529;-89
2022/05/11 01:26:17;;;;;;;10.37;9.57;;;16.00;99.90;;;;;;5059304;28;20531;-90
2022/05/11 01:28:54;;;;;;;12.40;11.10;;;16.00;99.90;;;;;;5069536;28;20436;-90
2022/05/11 01:31:28;;;;;;;11.70;10.80;;;15.90;99.90;;;;;;5083087;28;20898;-90
2022/05/11 01:34:01;;;;;;;11.13;10.23;;;16.00;99.90;;;;;;5062686;28;20509;-89
2022/05/11 01:36:32;;;;;;;11.37;10.37;;;16.00;99.90;;;;;;5038564;28;20441;-89
2022/05/11 01:39:00;;;;;;;11.53;10.47;;;15.80;99.90;;;;;;5041683;28;20440;-89
2022/05/11 01:41:35;;;;;;;11.53;10.50;;;15.70;99.90;;;;;;5053426;28;20494;-88
2022/05/11 01:44:06;;;;;;;11.87;10.87;;;15.60;99.90;;;;;;5043235;28;20443;-88
2022/05/11 01:46:32;;;;;;;10.10;9.30;;;15.60;99.90;;;;;;5064134;28;20437;-89
2022/05/11 01:49:00;;;;;;;11.60;10.50;;;15.60;99.90;;;;;;5049711;28;20556;-89
2022/05/11 01:51:27;;;;;;;11.50;10.50;;;15.60;99.90;;;;;;5055072;28;20475;-89
2022/05/11 01:53:53;;;;;;;10.77;9.80;;;15.30;99.90;;;;;;5047454;28;20491;-90
2022/05/11 01:56:23;;;;;;;9.50;8.77;;;15.40;99.90;;;;;;5057047;28;20528;-89
2022/05/11 01:58:50;;;;;;;10.87;9.70;;;15.60;99.90;;;;;;5050413;28;20441;-90
2022/05/11 02:01:20;;;;;;;10.47;9.67;;;15.60;99.90;;;;;;5045662;28;20543;-90
2022/05/11 02:03:47;;;;;;;11.03;10.13;;;15.70;99.90;;;;;;5040834;28;20541;-89
2022/05/11 02:09:08;;;;;;;11.07;10.07;;;15.60;99.90;;;;;;5072800;28;20440;-89
2022/05/11 02:11:36;;;;;;;11.77;10.77;;;15.60;99.90;;;;;;5055170;28;20517;-90
2022/05/11 02:14:07;;;;;;;10.73;9.67;;;15.60;99.90;;;;;;5046345;28;20859;-90
2022/05/11 02:16:33;;;;;;;10.50;9.60;;;15.60;99.90;;;;;;5028329;28;20402;-90
2022/05/11 02:19:01;;;;;;;11.77;10.67;;;15.50;99.90;;;;;;5065082;28;20498;-89
2022/05/11 02:21:26;;;;;;;11.80;10.80;;;15.40;99.90;;;;;;5058650;28;20896;-89
2022/05/11 02:23:52;;;;;;;11.47;10.47;;;15.30;99.90;;;;;;5043251;28;20441;-90
2022/05/11 02:26:19;;;;;;;11.40;10.30;;;15.20;99.90;;;;;;5038777;28;20651;-89
2022/05/11 02:28:51;;;;;;;11.27;10.37;;;15.30;99.90;;;;;;5055554;28;20186;-89
2022/05/11 02:31:18;;;;;;;11.80;10.80;;;15.40;99.90;;;;;;5054742;28;20460;-90
2022/05/11 02:33:44;;;;;;;11.57;10.67;;;15.20;99.90;;;;;;5022698;28;20451;-89
2022/05/11 02:36:13;;;;;;;10.97;9.97;;;15.00;99.90;;;;;;5037910;28;21004;-88
2022/05/11 02:38:46;;;;;;;10.67;9.77;;;15.10;99.90;;;;;;5044417;28;20432;-90
2022/05/11 02:41:12;;;;;;;11.50;10.43;;;15.10;99.90;;;;;;5050275;28;20436;-90
2022/05/11 02:43:37;;;;;;;11.43;10.47;;;15.70;99.90;;;;;;5049967;28;20451;-89
2022/05/11 02:46:03;;;;;;;11.77;10.77;;;15.10;99.90;;;;;;5049321;28;20182;-89
2022/05/11 02:48:32;;;;;;;10.77;9.90;;;15.00;99.90;;;;;;5043643;28;20197;-89
2022/05/11 02:50:59;;;;;;;11.47;10.47;;;15.00;99.90;;;;;;5065491;28;20879;-89
2022/05/11 02:53:28;;;;;;;12.03;10.93;;;15.00;99.90;;;;;;5041321;28;20452;-89
2022/05/11 02:55:55;;;;;;;10.40;9.50;;;15.00;99.90;;;;;;5042826;28;20441;-89
2022/05/11 02:58:24;;;;;;;10.40;9.40;;;15.00;99.90;;;;;;5052321;28;20493;-89
2022/05/11 03:00:51;;;;;;;10.80;9.90;;;15.00;99.90;;;;;;5044927;28;20493;-89
2022/05/11 03:03:21;;;;;;;11.50;10.60;;;15.00;99.90;;;;;;5047368;28;24092;-88
2022/05/11 03:05:48;;;;;;;11.10;10.10;;;14.90;99.90;;;;;;5055679;28;20459;-88
2022/05/11 03:08:16;;;;;;;10.00;9.20;;;15.00;99.90;;;;;;5058121;28;20440;-89
2022/05/11 03:10:44;;;;;;;9.97;9.07;;;14.90;99.90;;;;;;5053542;28;20654;-90
2022/05/11 03:13:12;;;;;;;10.57;9.67;;;14.90;99.90;;;;;;5062089;28;20585;-90
2022/05/11 03:15:38;;;;;;;10.40;9.50;;;14.90;99.90;;;;;;5082213;28;20431;-89
2022/05/11 03:18:06;;;;;;;11.20;10.20;;;14.80;99.90;;;;;;5056590;28;20424;-90
2022/05/11 03:20:32;;;;;;;11.20;10.10;;;14.70;99.90;;;;;;5044614;28;20721;-89
2022/05/11 03:22:57;;;;;;;11.93;10.93;;;14.60;99.90;;;;;;5059107;28;20436;-90
2022/05/11 03:25:26;;;;;;;10.67;9.67;;;14.60;99.90;;;;;;5055084;28;20189;-89
2022/05/11 03:27:53;;;;;;;11.13;10.13;;;14.50;99.90;;;;;;5054866;28;20221;-89
2022/05/11 03:30:20;;;;;;;10.63;9.83;;;14.30;99.90;;;;;;5062419;28;20497;-89
2022/05/11 03:35:31;;;;;;;12.10;9.93;;;14.40;99.90;;;;;;5077010;28;20479;-92
2022/05/11 03:37:57;;;;;;;10.80;9.90;;;14.40;99.90;;;;;;5057222;28;20502;-91
2022/05/11 03:40:23;;;;;;;12.40;11.30;;;14.90;99.90;;;;;;5068656;28;20240;-91
2022/05/11 03:42:57;;;;;;;11.73;10.73;;;14.30;99.90;;;;;;5064226;28;20177;-90
2022/05/11 03:45:37;;;;;;;11.17;10.17;;;14.40;99.90;;;;;;5067596;28;20198;-90
2022/05/11 03:48:05;;;;;;;11.20;10.00;;;14.50;99.90;;;;;;5050436;28;20447;-90
2022/05/11 03:50:32;;;;;;;11.60;10.60;;;14.20;99.90;;;;;;5076427;28;20183;-90
2022/05/11 03:52:58;;;;;;;11.77;10.73;;;14.20;99.90;;;;;;5061792;28;20514;-90
2022/05/11 03:55:27;;;;;;;12.33;10.93;;;14.20;99.90;;;;;;5055052;28;20441;-90
2022/05/11 03:57:53;;;;;;;10.83;9.80;;;14.10;99.90;;;;;;5060725;28;20439;-89
2022/05/11 04:00:24;;;;;;;12.10;11.00;;;14.10;99.90;;;;;;5054831;28;20428;-89
2022/05/11 04:02:52;;;;;;;10.10;9.23;;;14.10;99.90;;;;;;5064325;28;20198;-89
2022/05/11 04:05:22;;;;;;;11.97;10.97;;;14.10;99.90;;;;;;5040765;28;20436;-89
2022/05/11 04:07:48;;;;;;;11.10;10.10;;;14.20;99.90;;;;;;5043563;28;21667;-89
2022/05/11 04:10:15;;;;;;;11.50;10.50;;;14.50;99.90;;;;;;5041081;28;20519;-92
2022/05/11 04:12:48;;;;;;;11.37;10.27;;;14.20;99.90;;;;;;5029159;28;20801;-89
2022/05/11 04:15:14;;;;;;;12.13;11.03;;;14.20;99.90;;;;;;5040069;28;20794;-89
2022/05/11 04:17:41;;;;;;;10.53;9.63;;;14.30;99.90;;;;;;5038457;28;20444;-89
2022/05/11 04:20:10;;;;;;;10.00;9.20;;;14.30;99.90;;;;;;5043718;28;20432;-90
2022/05/11 04:22:35;;;;;;;10.63;9.73;;;14.40;99.90;;;;;;5025542;28;23375;-89
2022/05/11 04:25:01;;;;;;;9.87;8.93;;;14.30;99.90;;;;;;5037047;28;20439;-89
2022/05/11 04:27:27;;;;;;;10.60;9.70;;;14.40;99.90;;;;;;5044035;28;20271;-89
2022/05/11 04:29:53;;;;;;;11.37;10.37;;;14.40;99.90;;;;;;5036374;28;20190;-90
2022/05/11 04:32:21;;;;;;;11.80;10.77;;;14.90;99.90;;;;;;5042700;28;20476;-90
2022/05/11 04:34:47;;;;;;;10.07;9.07;;;14.50;99.90;;;;;;5041372;28;20208;-90
2022/05/11 04:37:18;;;;;;;10.03;9.03;;;14.60;99.90;;;;;;5040606;28;20428;-90
2022/05/11 04:40:11;;;;;;;10.53;9.63;;;14.50;99.90;;;;;;5035993;28;20225;-90
2022/05/11 04:42:37;;;;;;;11.10;10.03;;;14.60;99.90;;;;;;5037753;28;20751;-89
2022/05/11 04:45:41;;;;;;;11.23;10.23;;;14.60;99.90;;;;;;5019952;28;20455;-90
2022/05/11 04:48:07;;;;;;;9.83;9.03;;;14.50;99.90;;;;;;5048196;28;20454;-91
2022/05/11 04:50:38;;;;;;;10.60;9.70;;;14.60;99.90;;;;;;5069082;28;20532;-91
2022/05/11 04:53:12;;;;;;;11.03;10.03;;;15.20;99.90;;;;;;5050292;28;21962;-91
2022/05/11 04:55:42;;;;;;;10.67;9.77;;;14.70;99.90;;;;;;5043716;28;21028;-91
2022/05/11 04:58:07;;;;;;;9.87;8.97;;;15.20;99.90;;;;;;5042546;28;20440;-90
2022/05/11 05:00:35;;;;;;;10.27;9.17;;;14.70;99.90;;;;;;5049408;28;21150;-89
2022/05/11 05:03:12;;;;;;;11.73;10.73;;;15.00;99.90;;;;;;5047504;28;20600;-89
2022/05/11 05:05:38;;;;;;;10.43;9.43;;;14.80;99.90;;;;;;5036610;28;20470;-89
2022/05/11 05:08:07;;;;;;;10.87;9.87;;;14.90;99.90;;;;;;5041796;28;20577;-90
2022/05/11 05:10:36;;;;;;;10.50;9.50;;;14.90;99.90;;;;;;5044914;28;20436;-90
2022/05/11 05:13:04;;;;;;;10.70;9.53;;;14.80;99.90;;;;;;5055852;28;20484;-89
2022/05/11 05:15:36;;;;;;;10.73;9.83;;;15.40;99.90;;;;;;5044838;28;20437;-90
2022/05/11 05:18:06;;;;;;;10.70;9.60;;;15.50;99.90;;;;;;5033057;28;21118;-90
2022/05/11 05:20:32;;;;;;;9.43;8.63;;;15.10;99.90;;;;;;5062278;28;20978;-89
2022/05/11 05:22:58;;;;;;;9.83;8.80;;;15.10;99.90;;;;;;5034327;28;20592;-90
2022/05/11 05:25:40;;;;;;;11.07;9.90;;;15.30;99.90;;;;;;5032239;28;20440;-90
2022/05/11 05:31:10;;;;;;;10.73;9.73;;;16.00;99.90;;;;;;5061802;28;21138;-89
2022/05/11 05:33:41;;;;;;;14.33;12.63;;;15.50;99.90;;;;;;5036793;28;21016;-89
2022/05/11 05:36:07;;;;;;;13.23;12.03;;;16.20;99.90;;;;;;5036576;28;20882;-89
2022/05/11 05:38:38;;;;;;;23.27;20.97;;;15.80;99.90;;;;;;5036439;28;22093;-90
2022/05/11 05:41:05;;;;;;;11.83;10.80;;;15.90;99.90;;;;;;5057901;28;20843;-90
2022/05/11 05:43:31;;;;;;;11.30;10.40;;;16.50;99.90;;;;;;5046206;28;20443;-90
2022/05/11 05:45:57;;;;;;;11.37;10.37;;;16.30;99.90;;;;;;5048192;28;20505;-90
2022/05/11 05:48:23;;;;;;;11.33;10.33;;;16.00;99.90;;;;;;5042461;28;20186;-90
2022/05/11 05:50:52;;;;;;;10.10;9.30;;;16.20;99.90;;;;;;5037790;28;20213;-90
2022/05/11 05:53:27;;;;;;;10.30;9.40;;;16.30;99.90;;;;;;5031462;28;20475;-90
2022/05/11 05:55:52;;;;;;;9.73;8.83;;;16.40;99.90;;;;;;5035867;28;20431;-90
2022/05/11 05:58:18;;;;;;;10.87;9.97;;;17.00;99.90;;;;;;5035659;28;20443;-89
2022/05/11 06:00:47;;;;;;;10.17;9.17;;;16.60;99.90;;;;;;5042566;28;20228;-89
2022/05/11 06:03:22;;;;;;;10.43;9.53;;;16.60;99.90;;;;;;5052732;28;20448;-89
2022/05/11 06:05:47;;;;;;;9.87;9.07;;;16.90;99.90;;;;;;5045269;28;20447;-89
2022/05/11 06:08:21;;;;;;;9.37;8.57;;;16.50;99.90;;;;;;5065736;28;20439;-90
2022/05/11 06:10:48;;;;;;;9.60;8.80;;;16.50;99.90;;;;;;5045854;28;20229;-89
2022/05/11 06:13:20;;;;;;;9.33;8.53;;;16.70;99.90;;;;;;5062093;28;20476;-90
2022/05/11 06:15:46;;;;;;;9.97;8.17;;;17.30;99.90;;;;;;5056429;28;20505;-90
2022/05/11 06:18:12;;;;;;;9.50;8.70;;;16.70;99.90;;;;;;5053300;28;20436;-90
2022/05/11 06:20:43;;;;;;;9.73;8.80;;;17.40;99.90;;;;;;5050962;28;20826;-91
2022/05/11 06:23:11;;;;;;;10.80;9.80;;;17.00;99.90;;;;;;5040282;28;21667;-91
2022/05/11 06:25:38;;;;;;;9.03;8.23;;;17.60;99.90;;;;;;5068580;28;20809;-92
2022/05/11 06:28:06;;;;;;;10.63;8.33;;;17.30;99.90;;;;;;5023759;28;20730;-87
2022/05/11 06:30:32;;;;;;;9.30;8.60;;;17.40;99.90;;;;;;5062154;28;20519;-90
2022/05/11 06:33:00;;;;;;;9.40;8.60;;;18.00;99.90;;;;;;5059646;28;20472;-87
2022/05/11 06:35:26;;;;;;;8.73;7.83;;;17.60;99.90;;;;;;5066443;28;20436;-87
2022/05/11 06:37:54;;;;;;;9.00;8.30;;;17.70;99.90;;;;;;5056965;28;20451;-87
2022/05/11 06:40:20;;;;;;;8.53;7.83;;;17.70;99.90;;;;;;5059654;28;20448;-89
2022/05/11 06:42:48;;;;;;;9.63;8.83;;;17.90;99.90;;;;;;5054624;28;20957;-89
2022/05/11 06:45:17;;;;;;;8.90;8.10;;;18.00;99.90;;;;;;5064748;28;20436;-87
2022/05/11 06:47:43;;;;;;;9.43;8.63;;;18.00;99.90;;;;;;5050104;28;20532;-88
2022/05/11 06:50:12;;;;;;;9.20;8.40;;;18.10;99.90;;;;;;5044446;28;20182;-87
2022/05/11 06:52:38;;;;;;;8.67;7.97;;;18.30;99.90;;;;;;5055061;28;20218;-89
2022/05/11 07:01:39;;;;;;;8.80;8.10;;;18.70;99.90;;;;;;5072843;28;20846;-88
2022/05/11 07:04:40;;;;;;;18.83;17.10;;;18.80;99.90;;;;;;5034756;28;20947;-88
2022/05/11 07:07:47;;;;;;;9.93;9.13;;;18.90;99.90;;;;;;5064793;28;20440;-90
2022/05/11 07:10:13;;;;;;;9.10;8.20;;;19.10;99.90;;;;;;5072326;28;20519;-94
2022/05/11 07:12:56;;;;;;;8.40;7.70;;;19.30;99.90;;;;;;5092381;28;20706;-90
2022/05/11 07:15:25;;;;;;;9.10;8.40;;;19.40;99.90;;;;;;5069673;28;20447;-92
2022/05/11 07:18:03;;;;;;;8.27;7.47;;;19.50;99.90;;;;;;5068633;28;20907;-92
2022/05/11 07:20:37;;;;;;;8.20;7.53;;;19.50;99.90;;;;;;5055698;28;20440;-92
2022/05/11 07:23:08;;;;;;;8.20;7.50;;;19.70;99.90;;;;;;5074954;28;20452;-89
2022/05/11 07:25:44;;;;;;;8.97;7.97;;;19.90;99.90;;;;;;5076675;28;20523;-95
2022/05/11 07:28:14;;;;;;;7.20;6.60;;;20.00;99.90;;;;;;5061113;28;20440;-87
2022/05/11 07:30:45;;;;;;;8.00;6.70;;;20.50;99.90;;;;;;5059745;28;20559;-88
2022/05/11 07:33:28;;;;;;;8.07;7.37;;;20.30;99.90;;;;;;5073736;28;20530;-91
2022/05/11 07:36:12;;;;;;;7.73;6.73;;;20.40;99.90;;;;;;5075657;28;20505;-90
2022/05/11 07:38:47;;;;;;;6.83;6.33;;;20.50;99.90;;;;;;5056203;28;20814;-89
2022/05/11 07:41:17;;;;;;;7.20;6.70;;;20.50;99.90;;;;;;5055084;28;20943;-91
2022/05/11 07:43:46;;;;;;;7.33;6.43;;;20.70;99.90;;;;;;5071716;28;20186;-90
2022/05/11 07:46:12;;;;;;;7.53;6.93;;;21.30;99.90;;;;;;5049611;28;20991;-89
2022/05/11 07:48:37;;;;;;;7.70;7.00;;;21.40;99.90;;;;;;5067935;28;20198;-88
2022/05/11 07:51:03;;;;;;;6.63;6.13;;;21.00;99.40;;;;;;5076574;28;20214;-90
2022/05/11 07:53:32;;;;;;;6.80;6.20;;;21.10;99.30;;;;;;5068908;28;21071;-89
2022/05/11 08:01:28;;;;;;;5.97;5.57;;;22.10;99.10;;;;;;5082018;28;20446;-87
2022/05/11 08:04:02;;;;;;;7.07;6.50;;;21.60;98.70;;;;;;5065811;28;21063;-89
2022/05/11 08:06:27;;;;;;;6.40;6.00;;;21.80;98.10;;;;;;5046180;28;20198;-89
2022/05/11 08:08:59;;;;;;;6.10;5.63;;;22.50;98.00;;;;;;5055645;28;20432;-90
2022/05/11 08:11:25;;;;;;;6.20;5.60;;;22.00;97.60;;;;;;5074637;28;20186;-90
2022/05/11 08:13:57;;;;;;;6.30;5.80;;;22.10;97.60;;;;;;5072033;28;20450;-88
2022/05/11 08:16:26;;;;;;;7.10;6.60;;;22.60;97.60;;;;;;5054516;28;20190;-87
2022/05/11 08:18:58;;;;;;;6.50;6.00;;;22.30;97.00;;;;;;5073219;28;20429;-89
2022/05/11 08:21:26;;;;;;;6.87;6.37;;;22.30;97.00;;;;;;5063312;28;20520;-88
2022/05/11 08:23:58;;;;;;;6.17;5.67;;;22.30;97.50;;;;;;5057132;28;20447;-94
2022/05/11 08:26:23;;;;;;;5.90;5.50;;;22.40;96.80;;;;;;5048337;28;20455;-93
2022/05/11 08:28:52;;;;;;;6.57;6.07;;;22.40;96.00;;;;;;5077179;28;20444;-96
2022/05/11 08:34:03;;;;;;;6.17;5.67;;;22.80;96.00;;;;;;5066950;28;20554;-94
2022/05/11 08:36:30;;;;;;;6.10;5.50;;;22.90;95.60;;;;;;5073340;28;20543;-91
2022/05/11 08:38:57;;;;;;;5.50;5.10;;;23.60;95.80;;;;;;5057708;28;20610;-93
2022/05/11 08:41:53;;;;;;;6.63;6.13;;;23.20;94.70;;;;;;5049988;28;20438;-95
2022/05/11 08:44:43;;;;;;;6.00;5.47;;;23.30;94.70;;;;;;5053165;28;20451;-94
2022/05/11 08:47:39;;;;;;;5.73;5.33;;;23.50;93.90;;;;;;5056316;28;20432;-94
2022/05/11 08:50:28;;;;;;;5.20;4.73;;;23.60;93.50;;;;;;5080064;28;20953;-93
2022/05/11 08:53:13;;;;;;;6.40;5.90;;;23.70;93.10;;;;;;5062324;28;20513;-95
2022/05/11 08:56:11;;;;;;;5.90;5.40;;;23.70;92.80;;;;;;5041350;28;20459;-92
2022/05/11 08:58:48;;;;;;;6.60;6.10;;;23.80;92.80;;;;;;5049205;28;20456;-91
2022/05/11 09:01:34;;;;;;;6.20;5.60;;;23.90;93.10;;;;;;5050125;28;20456;-95
2022/05/11 09:04:05;;;;;;;6.40;5.90;;;24.00;92.00;;;;;;5050555;28;20446;-91
2022/05/11 09:06:36;;;;;;;6.13;5.63;;;24.20;92.00;;;;;;5053995;28;20506;-91
2022/05/11 09:09:03;;;;;;;5.53;5.03;;;24.00;91.80;;;;;;5043300;28;20739;-94
2022/05/11 09:11:34;;;;;;;6.07;5.67;;;24.10;91.60;;;;;;5046528;28;20558;-95
2022/05/11 09:14:01;;;;;;;6.10;5.70;;;25.00;92.20;;;;;;5054240;28;20460;-92
2022/05/11 09:16:44;;;;;;;6.23;5.83;;;24.60;91.70;;;;;;5063935;28;20437;-92
2022/05/11 09:19:12;;;;;;;6.10;5.60;;;25.30;91.60;;;;;;5048809;28;20496;-92
2022/05/11 09:21:47;;;;;;;6.40;5.90;;;24.50;90.30;;;;;;5039924;28;20616;-91
2022/05/11 09:24:18;;;;;;;6.10;5.60;;;25.50;92.10;;;;;;5037220;28;20512;-91
2022/05/11 09:26:52;;;;;;;6.33;5.93;;;25.80;91.40;;;;;;5066142;28;20432;-94
2022/05/11 09:29:33;;;;;;;6.67;5.97;;;26.10;90.50;;;;;;5047827;28;20495;-94
2022/05/11 09:32:32;;;;;;;;;;;;;;;;;;;;;
2022/05/11 09:35:33;;;;;;;6.63;6.13;;;25.00;89.40;;;;;;5069332;28;20432;-94
2022/05/11 09:38:12;;;;;;;6.40;5.90;;;25.70;90.10;;;;;;5042358;28;20432;-94
2022/05/11 09:40:53;;;;;;;6.47;6.07;;;25.20;88.20;;;;;;5050277;28;23421;-92
2022/05/11 09:43:50;;;;;;;6.07;5.67;;;26.10;90.00;;;;;;5043162;28;20731;-94
2022/05/11 09:46:42;;;;;;;6.77;6.27;;;26.50;88.40;;;;;;5044792;28;20909;-94
2022/05/11 09:49:24;;;;;;;6.53;6.07;;;26.80;89.60;;;;;;5060864;28;20456;-95
2022/05/11 09:51:53;;;;;;;6.23;5.73;;;25.80;86.70;;;;;;5034717;28;21089;-94
2022/05/11 09:54:53;;;;;;;6.47;6.07;;;25.80;86.50;;;;;;5048742;28;21308;-94
2022/05/11 09:57:27;;;;;;;6.00;5.60;;;26.00;85.60;;;;;;5055117;28;20444;-94
2022/05/11 10:00:33;;;;;;;6.00;5.50;;;25.00;87.00;;;;;;5047975;28;20483;-93
2022/05/11 10:03:02;;;;;;;5.87;5.47;;;26.00;84.60;;;;;;5042388;28;20447;-94
2022/05/11 10:05:37;;;;;;;6.27;5.67;;;25.60;82.20;;;;;;5055745;28;20492;-94
2022/05/11 10:08:08;;;;;;;7.53;6.40;;;27.10;84.70;;;;;;5063320;28;20436;-93
2022/05/11 10:10:37;;;;;;;6.80;5.97;;;26.30;86.70;;;;;;5037549;28;20818;-93
2022/05/11 10:13:23;;;;;;;5.60;5.23;;;26.50;85.70;;;;;;5059615;28;20491;-94
2022/05/11 10:22:00;;;;;;;6.77;6.30;;;26.50;80.80;;;;;;5041613;28;21118;-94
2022/05/11 10:24:52;;;;;;;6.73;6.13;;;27.90;82.50;;;;;;5032902;28;20445;-89
2022/05/11 10:27:55;;;;;;;6.40;6.00;;;27.00;81.20;;;;;;5046482;28;20536;-91
2022/05/11 10:30:34;;;;;;;5.80;5.50;;;26.90;79.90;;;;;;5046392;28;21518;-91
2022/05/11 10:33:38;;;;;;;6.20;5.70;;;25.80;79.50;;;;;;5007218;28;20492;-91
2022/05/11 10:36:23;;;;;;;5.83;5.53;;;26.60;81.00;;;;;;5042270;28;20942;-92
2022/05/11 10:39:19;;;;;;;6.50;6.00;;;27.30;82.80;;;;;;5039305;28;20474;-92
2022/05/11 10:42:08;;;;;;;6.00;5.60;;;27.00;81.50;;;;;;5017624;28;20464;-90
2022/05/11 10:44:59;;;;;;;6.90;6.20;;;26.30;80.70;;;;;;5028162;28;20498;-92
2022/05/11 10:48:08;;;;;;;6.67;6.17;;;28.60;80.00;;;;;;5040023;28;20586;-92
2022/05/11 10:50:57;;;;;;;6.00;5.50;;;27.00;78.30;;;;;;5018869;28;21219;-93
2022/05/11 10:54:26;;;;;;;7.40;5.93;;;27.60;75.20;;;;;;5027970;28;21029;-91
2022/05/11 10:57:16;;;;;;;5.40;5.10;;;27.90;75.60;;;;;;4984522;28;20444;-90
2022/05/11 11:00:12;;;;;;;5.43;5.03;;;27.70;70.80;;;;;;5003589;28;20452;-92
2022/05/11 11:02:44;;;;;;;5.50;5.10;;;27.70;72.70;;;;;;4963712;28;20452;-94
2022/05/11 11:05:33;;;;;;;5.53;5.13;;;27.70;70.20;;;;;;5055828;28;21900;-94
2022/05/11 11:08:36;;;;;;;4.90;4.60;;;27.60;70.50;;;;;;5056856;28;20496;-92
2022/05/11 11:11:23;;;;;;;5.40;4.87;;;28.00;68.60;;;;;;5023385;28;20472;-92
2022/05/11 11:14:51;;;;;;;5.30;4.90;;;29.00;68.10;;;;;;5021414;28;20957;-91
2022/05/11 11:17:22;;;;;;;5.30;4.90;;;27.60;68.30;;;;;;5026785;28;20441;-94
2022/05/11 11:19:51;;;;;;;6.00;5.50;;;29.00;73.60;;;;;;5052969;28;20445;-92
2022/05/11 11:22:20;;;;;;;5.70;4.90;;;28.90;70.90;;;;;;5045206;28;20464;-91
2022/05/11 11:25:24;;;;;;;4.97;4.57;;;28.00;70.60;;;;;;5059398;28;20769;-91
2022/05/11 11:28:16;;;;;;;4.90;4.60;;;27.60;71.90;;;;;;5028039;28;20429;-90
2022/05/11 11:30:57;;;;;;;5.93;5.10;;;27.90;70.20;;;;;;5040324;28;20564;-91
2022/05/11 11:33:26;;;;;;;4.80;4.40;;;29.30;68.70;;;;;;5058921;28;20502;-90
2022/05/11 11:36:13;;;;;;;4.77;4.47;;;28.50;66.30;;;;;;5059618;28;24826;-89
2022/05/11 11:38:38;;;;;;;5.00;4.60;;;28.60;65.80;;;;;;5059457;28;20519;-91
2022/05/11 11:41:16;;;;;;;5.23;4.90;;;29.00;62.00;;;;;;5032997;28;20462;-90
2022/05/11 11:43:53;;;;;;;5.80;5.40;;;29.30;62.20;;;;;;5029858;28;20210;-91
2022/05/11 11:46:50;;;;;;;;;;;;;;;;;;;;;
2022/05/11 11:49:26;;;;;;;4.93;4.57;;;29.00;59.90;;;;;;5054938;28;20440;-91
2022/05/11 11:51:56;;;;;;;6.27;5.17;;;29.00;66.50;;;;;;5064950;28;20887;-91
2022/05/11 11:54:31;;;;;;;5.50;5.10;;;28.90;63.60;;;;;;5049216;28;20429;-91
2022/05/11 11:57:22;;;;;;;5.40;5.00;;;28.80;60.50;;;;;;5052608;28;20482;-91
2022/05/11 12:00:25;;;;;;;5.37;4.87;;;29.50;61.70;;;;;;5059815;28;20444;-91
2022/05/11 12:02:53;;;;;;;5.10;4.80;;;28.90;59.10;;;;;;5065110;28;20436;-90
2022/05/11 12:05:45;;;;;;;5.67;4.90;;;28.70;60.00;;;;;;5068871;28;20440;-92
2022/05/11 12:17:05;;;;;;;5.37;4.93;;;29.60;62.20;;;;;;5070529;28;20669;-91
2022/05/11 12:20:04;;;;;;;4.97;4.67;;;29.70;60.80;;;;;;5063771;28;20444;-91
2022/05/11 12:25:54;;;;;;;;;;;;;;;;;;;;;
2022/05/11 12:28:24;;;;;;;5.33;5.03;;;29.50;58.50;;;;;;5073870;28;20442;-91
2022/05/11 12:31:02;;;;;;;5.10;4.80;;;29.70;60.10;;;;;;5066805;28;20935;-91
2022/05/11 12:33:52;;;;;;;5.03;4.63;;;30.60;62.70;;;;;;5066072;28;20476;-90
2022/05/11 12:36:32;;;;;;;4.73;4.43;;;29.30;65.70;;;;;;5031905;28;20540;-90
2022/05/11 12:39:32;;;;;;;5.13;4.73;;;30.90;61.00;;;;;;5066641;28;20475;-91
2022/05/11 12:46:12;;;;;;;5.17;4.77;;;30.60;63.80;;;;;;5056393;28;20533;-90
2022/05/11 12:49:04;;;;;;;6.67;4.67;;;29.40;58.20;;;;;;5057299;28;20492;-91
2022/05/11 12:51:31;;;;;;;4.70;4.30;;;29.50;61.80;;;;;;5046048;28;21168;-91
2022/05/11 12:54:32;;;;;;;5.30;4.90;;;30.40;60.40;;;;;;5060831;28;20563;-91
2022/05/11 12:57:20;;;;;;;5.03;4.73;;;29.30;57.10;;;;;;5056133;28;20446;-89
2022/05/11 12:59:53;;;;;;;5.10;4.70;;;29.00;58.30;;;;;;5073760;28;20437;-91
2022/05/11 13:02:32;;;;;;;;;;;;;;;;;;;;;
2022/05/11 13:05:21;;;;;;;5.10;4.70;;;29.60;58.50;;;;;;5062273;28;20478;-91
2022/05/11 13:08:00;;;;;;;6.03;5.60;;;28.60;59.80;;;;;;5073481;28;20998;-91
2022/05/11 13:10:53;;;;;;;5.80;5.30;;;30.80;58.60;;;;;;5061446;28;21187;-90
2022/05/11 13:13:34;;;;;;;6.17;4.60;;;30.70;60.90;;;;;;5044142;28;21009;-91
2022/05/11 13:16:40;;;;;;;4.90;4.60;;;30.80;56.50;;;;;;5064027;28;20972;-90
2022/05/11 13:20:14;;;;;;;;;;;;;;;;;;;;;
2022/05/11 13:23:14;;;;;;;5.23;4.80;;;29.80;56.10;;;;;;5038116;28;20815;-90
2022/05/11 13:26:30;;;;;;;5.40;5.00;;;30.10;56.00;;;;;;5043455;28;20487;-91
2022/05/11 13:29:14;;;;;;;5.13;4.70;;;30.70;56.30;;;;;;5016722;28;20442;-91
2022/05/11 13:32:03;;;;;;;6.43;5.07;;;31.10;56.80;;;;;;5045110;28;20433;-90
2022/05/11 13:35:23;;;;;;;3.90;3.70;;;29.20;55.10;;;;;;5052189;28;20451;-90
2022/05/11 13:38:14;;;;;;;4.90;4.50;;;30.20;54.80;;;;;;5048674;28;20529;-90
2022/05/11 13:40:52;;;;;;;5.57;4.73;;;30.50;55.10;;;;;;5064918;28;20954;-90
2022/05/11 13:43:34;;;;;;;4.23;3.93;;;30.70;56.70;;;;;;5062187;28;20460;-90
2022/05/11 13:46:37;;;;;;;;;;;;;;;;;;;;;
2022/05/11 13:49:24;;;;;;;5.53;4.47;;;31.00;53.80;;;;;;5061016;28;20444;-90
2022/05/11 13:51:52;;;;;;;4.13;3.80;;;31.00;52.60;;;;;;5043622;28;20465;-90
2022/05/11 13:54:30;;;;;;;4.47;4.07;;;31.00;53.80;;;;;;5046459;28;20445;-91
2022/05/11 14:00:04;;;;;;;4.03;3.63;;;33.00;49.30;;;;;;5057625;28;20459;-91
2022/05/11 14:02:33;;;;;;;4.23;3.53;;;34.60;47.80;;;;;;5063997;28;20474;-90
2022/05/11 14:05:02;;;;;;;4.20;3.80;;;35.70;46.70;;;;;;5044960;28;21038;-90
2022/05/11 14:07:33;;;;;;;3.90;3.63;;;34.60;45.40;;;;;;5060496;28;20441;-91
2022/05/11 14:10:02;;;;;;;4.60;4.20;;;36.10;45.80;;;;;;5048599;28;21086;-90
2022/05/11 14:12:31;;;;;;;6.37;3.70;;;35.40;42.80;;;;;;5070316;28;20470;-91
2022/05/11 14:15:05;;;;;;;3.90;3.60;;;35.10;46.40;;;;;;5049734;28;20843;-91
2022/05/11 14:17:44;;;;;;;3.93;3.63;;;35.30;42.30;;;;;;5061034;28;20464;-90